createdAt,value
2017-05-19T00:00:37.753Z,25.57
2017-05-19T00:01:37.714Z,25.61
2017-05-19T00:02:37.723Z,25.61
2017-05-19T00:03:37.734Z,25.51
2017-05-19T00:04:37.114Z,25.51
2017-05-19T00:05:37.176Z,25.5
2017-05-19T00:06:37.755Z,25.5
2017-05-19T00:07:37.453Z,25.5
2017-05-19T00:08:37.463Z,25.51
2017-05-19T00:09:37.784Z,25.47
2017-05-19T00:10:37.791Z,25.52
2017-05-19T00:11:37.797Z,25.47
2017-05-19T00:12:37.806Z,25.52
2017-05-19T00:13:37.878Z,25.46
2017-05-19T00:14:37.200Z,25.55
2017-05-19T00:15:37.888Z,25.5
2017-05-19T00:16:37.531Z,25.54
2017-05-19T00:17:37.850Z,25.5
2017-05-19T00:18:37.857Z,25.43
2017-05-19T00:19:37.551Z,25.51
2017-05-19T00:20:37.923Z,25.5
2017-05-19T00:21:37.571Z,25.47
2017-05-19T00:22:37.268Z,25.42
2017-05-19T00:23:37.641Z,25.38
2017-05-19T00:24:37.286Z,25.4
2017-05-19T00:25:37.914Z,25.39
2017-05-19T00:26:37.923Z,25.39
2017-05-19T00:27:37.623Z,25.28
2017-05-19T00:28:37.945Z,25.32
2017-05-19T00:29:37.637Z,25.27
2017-05-19T00:30:37.961Z,25.24
2017-05-19T00:31:37.966Z,25.21
2017-05-19T00:32:37.759Z,25.13
2017-05-19T00:33:37.989Z,25.14
2017-05-19T00:34:38.039Z,25.18
2017-05-19T00:35:37.688Z,25.17
2017-05-19T00:36:38.022Z,25.2
2017-05-19T00:37:37.707Z,25.1
2017-05-19T00:38:37.770Z,25.1
2017-05-19T00:39:38.036Z,25.14
2017-05-19T00:40:38.041Z,25.13
2017-05-19T00:41:38.101Z,25.14
2017-05-19T00:42:38.059Z,25.15
2017-05-19T00:43:38.069Z,25.2
2017-05-19T00:44:37.769Z,25.17
2017-05-19T00:45:38.132Z,25.13
2017-05-19T00:46:37.782Z,25.15
2017-05-19T00:47:37.839Z,25.18
2017-05-19T00:48:38.162Z,25.15
2017-05-19T00:49:37.857Z,25.1
2017-05-19T00:50:38.123Z,25.15
2017-05-19T00:51:37.820Z,25.32
2017-05-19T00:52:38.139Z,25.27
2017-05-19T00:53:38.199Z,25.35
2017-05-19T00:54:37.848Z,25.33
2017-05-19T00:55:38.168Z,25.33
2017-05-19T00:56:38.174Z,25.24
2017-05-19T00:57:38.183Z,25.27
2017-05-19T00:58:38.243Z,25.42
2017-05-19T00:59:38.200Z,25.32
2017-05-19T01:00:38.207Z,25.38
2017-05-19T01:01:38.213Z,25.4
2017-05-19T01:02:38.223Z,25.38
2017-05-19T01:03:38.333Z,25.33
2017-05-19T01:04:38.290Z,25.38
2017-05-19T01:05:38.246Z,25.33
2017-05-19T01:06:38.257Z,25.39
2017-05-19T01:07:38.267Z,25.38
2017-05-19T01:08:38.323Z,25.4
2017-05-19T01:09:38.283Z,25.36
2017-05-19T01:10:38.388Z,25.23
2017-05-19T01:11:38.350Z,25.42
2017-05-19T01:12:38.307Z,25.4
2017-05-19T01:13:38.015Z,25.33
2017-05-19T01:14:38.320Z,25.39
2017-05-19T01:15:38.333Z,25.38
2017-05-19T01:16:38.392Z,25.33
2017-05-19T01:17:38.345Z,25.38
2017-05-19T01:18:38.044Z,25.32
2017-05-19T01:19:38.366Z,25.3
2017-05-19T01:20:38.377Z,25.21
2017-05-19T01:21:38.119Z,25.33
2017-05-19T01:22:38.392Z,25.33
2017-05-19T01:23:38.094Z,25.4
2017-05-19T01:24:38.403Z,25.35
2017-05-19T01:25:38.416Z,25.36
2017-05-19T01:26:38.522Z,25.23
2017-05-19T01:27:38.430Z,25.27
2017-05-19T01:28:38.129Z,25.36
2017-05-19T01:29:37.827Z,25.36
2017-05-19T01:30:38.146Z,25.4
2017-05-19T01:31:38.464Z,25.32
2017-05-19T01:32:38.164Z,25.24
2017-05-19T01:33:38.482Z,25.23
2017-05-19T01:34:38.504Z,25.23
2017-05-19T01:35:38.496Z,25.36
2017-05-19T01:36:38.510Z,25.39
2017-05-19T01:37:38.568Z,25.4
2017-05-19T01:38:38.573Z,25.32
2017-05-19T01:39:38.219Z,25.21
2017-05-19T01:40:38.539Z,25.3
2017-05-19T01:41:38.553Z,25.18
2017-05-19T01:42:38.606Z,25.38
2017-05-19T01:43:38.259Z,25.3
2017-05-19T01:44:38.262Z,25.33
2017-05-19T01:45:38.635Z,25.35
2017-05-19T01:46:38.592Z,25.24
2017-05-19T01:47:38.291Z,25.24
2017-05-19T01:48:38.606Z,25.21
2017-05-19T01:49:38.614Z,25.3
2017-05-19T01:50:38.315Z,25.24
2017-05-19T01:51:38.688Z,25.23
2017-05-19T01:52:38.330Z,25.28
2017-05-19T01:53:38.748Z,25.25
2017-05-19T01:54:38.346Z,25.25
2017-05-19T01:55:38.717Z,25.25
2017-05-19T01:56:38.678Z,25.23
2017-05-19T01:57:38.679Z,25.23
2017-05-19T01:58:38.382Z,25.23
2017-05-19T01:59:38.754Z,25.27
2017-05-19T02:00:38.393Z,25.23
2017-05-19T02:01:38.715Z,25.23
2017-05-19T02:02:38.722Z,25.25
2017-05-19T02:03:38.733Z,25.23
2017-05-19T02:04:38.735Z,25.24
2017-05-19T02:05:38.796Z,25.24
2017-05-19T02:06:38.755Z,25.21
2017-05-19T02:07:38.455Z,25.23
2017-05-19T02:08:38.464Z,25.23
2017-05-19T02:09:38.779Z,25.23
2017-05-19T02:10:38.790Z,25.24
2017-05-19T02:11:38.795Z,25.33
2017-05-19T02:12:38.806Z,25.23
2017-05-19T02:13:38.867Z,25.3
2017-05-19T02:14:38.828Z,25.3
2017-05-19T02:15:38.517Z,25.2
2017-05-19T02:16:38.536Z,25.28
2017-05-19T02:17:38.540Z,25.25
2017-05-19T02:18:38.930Z,25.21
2017-05-19T02:19:38.554Z,25.2
2017-05-19T02:20:38.562Z,25.21
2017-05-19T02:21:38.883Z,25.25
2017-05-19T02:22:38.269Z,25.27
2017-05-19T02:23:38.900Z,25.28
2017-05-19T02:24:38.953Z,25.32
2017-05-19T02:25:38.918Z,25.18
2017-05-19T02:26:38.349Z,25.23
2017-05-19T02:27:38.676Z,25.24
2017-05-19T02:28:38.989Z,25.28
2017-05-19T02:29:38.636Z,25.23
2017-05-19T02:30:38.958Z,25.23
2017-05-19T02:31:38.962Z,25.25
2017-05-19T02:32:38.971Z,25.28
2017-05-19T02:33:38.978Z,25.24
2017-05-19T02:34:38.989Z,25.21
2017-05-19T02:35:38.735Z,25.25
2017-05-19T02:36:39.008Z,25.3
2017-05-19T02:37:38.712Z,25.23
2017-05-19T02:38:39.023Z,25.23
2017-05-19T02:39:39.080Z,25.18
2017-05-19T02:40:39.088Z,25.27
2017-05-19T02:41:39.046Z,25.14
2017-05-19T02:42:39.059Z,25.24
2017-05-19T02:43:39.113Z,25.33
2017-05-19T02:44:39.124Z,25.23
2017-05-19T02:45:39.179Z,25.3
2017-05-19T02:46:39.089Z,25.1
2017-05-19T02:47:39.096Z,25.15
2017-05-19T02:48:38.798Z,25.18
2017-05-19T02:49:39.112Z,25.33
2017-05-19T02:50:38.862Z,25.2
2017-05-19T02:51:39.190Z,25.24
2017-05-19T02:52:39.438Z,25.23
2017-05-19T02:53:39.200Z,25.13
2017-05-19T02:54:39.153Z,25.14
2017-05-19T02:55:39.163Z,25.23
2017-05-19T02:56:39.174Z,25.28
2017-05-19T02:57:39.185Z,25.18
2017-05-19T02:58:39.191Z,25.15
2017-05-19T02:59:39.197Z,25.17
2017-05-19T03:00:39.204Z,25.21
2017-05-19T03:01:39.215Z,25.18
2017-05-19T03:02:38.913Z,25.18
2017-05-19T03:03:39.242Z,25.17
2017-05-19T03:04:39.240Z,25.14
2017-05-19T03:05:39.247Z,25.17
2017-05-19T03:06:38.994Z,25.15
2017-05-19T03:07:39.260Z,25.14
2017-05-19T03:08:39.274Z,25.2
2017-05-19T03:09:39.282Z,25.15
2017-05-19T03:10:39.287Z,25.14
2017-05-19T03:11:38.677Z,25.2
2017-05-19T03:12:39.357Z,25.15
2017-05-19T03:13:39.315Z,25.17
2017-05-19T03:14:39.322Z,25.2
2017-05-19T03:15:39.329Z,25.18
2017-05-19T03:16:39.336Z,25.2
2017-05-19T03:17:39.349Z,25.15
2017-05-19T03:18:39.355Z,25.17
2017-05-19T03:19:39.365Z,25.14
2017-05-19T03:20:39.372Z,25.13
2017-05-19T03:21:39.066Z,25.1
2017-05-19T03:22:39.078Z,25.17
2017-05-19T03:23:39.398Z,25.2
2017-05-19T03:24:39.402Z,25.18
2017-05-19T03:25:39.413Z,25.21
2017-05-19T03:26:39.471Z,25.18
2017-05-19T03:27:39.433Z,25.14
2017-05-19T03:28:39.436Z,25.14
2017-05-19T03:29:38.882Z,25.18
2017-05-19T03:30:39.506Z,25.23
2017-05-19T03:31:39.465Z,25.18
2017-05-19T03:32:39.526Z,25.2
2017-05-19T03:33:39.479Z,25.1
2017-05-19T03:34:39.490Z,25.17
2017-05-19T03:35:39.186Z,25.13
2017-05-19T03:36:39.196Z,25.15
2017-05-19T03:37:39.515Z,25.2
2017-05-19T03:38:39.523Z,25.18
2017-05-19T03:39:39.577Z,25.14
2017-05-19T03:40:39.557Z,25.13
2017-05-19T03:41:39.603Z,25.2
2017-05-19T03:42:39.556Z,25.15
2017-05-19T03:43:39.564Z,25.18
2017-05-19T03:44:39.410Z,25.14
2017-05-19T03:45:39.578Z,25.24
2017-05-19T03:46:39.588Z,25.23
2017-05-19T03:47:39.595Z,25.14
2017-05-19T03:48:39.656Z,25.21
2017-05-19T03:49:39.613Z,25.15
2017-05-19T03:50:39.671Z,25.15
2017-05-19T03:51:39.629Z,25.15
2017-05-19T03:52:39.692Z,25.14
2017-05-19T03:53:39.647Z,25.13
2017-05-19T03:54:39.701Z,25.21
2017-05-19T03:55:39.663Z,25.13
2017-05-19T03:56:39.671Z,25.14
2017-05-19T03:57:39.680Z,25.2
2017-05-19T03:58:39.690Z,25.13
2017-05-19T03:59:39.389Z,25.14
2017-05-19T04:00:39.704Z,25.15
2017-05-19T04:01:39.712Z,25.1
2017-05-19T04:02:39.824Z,25.2
2017-05-19T04:03:39.784Z,25.2
2017-05-19T04:04:39.741Z,25.09
2017-05-19T04:05:39.744Z,25.15
2017-05-19T04:06:39.132Z,25.14
2017-05-19T04:07:39.527Z,25.14
2017-05-19T04:08:39.772Z,25.1
2017-05-19T04:09:39.779Z,25.2
2017-05-19T04:10:39.809Z,25.15
2017-05-19T04:11:39.796Z,25.14
2017-05-19T04:12:39.810Z,25.14
2017-05-19T04:13:39.814Z,25.17
2017-05-19T04:14:39.509Z,25.13
2017-05-19T04:15:39.828Z,25.24
2017-05-19T04:16:39.835Z,25.13
2017-05-19T04:17:39.846Z,25.18
2017-05-19T04:18:39.855Z,25.2
2017-05-19T04:19:39.863Z,25.18
2017-05-19T04:20:39.924Z,25.24
2017-05-19T04:21:39.620Z,25.21
2017-05-19T04:22:39.887Z,25.13
2017-05-19T04:23:39.899Z,25.14
2017-05-19T04:24:39.900Z,25.13
2017-05-19T04:25:39.655Z,25.17
2017-05-19T04:26:39.613Z,25.13
2017-05-19T04:27:39.623Z,25.06
2017-05-19T04:28:39.933Z,25.17
2017-05-19T04:29:39.941Z,25.2
2017-05-19T04:30:39.956Z,25.17
2017-05-19T04:31:39.965Z,25.1
2017-05-19T04:32:39.666Z,25.08
2017-05-19T04:33:39.979Z,25.18
2017-05-19T04:34:39.986Z,25.14
2017-05-19T04:35:40.047Z,25.14
2017-05-19T04:36:40.058Z,25.17
2017-05-19T04:37:40.009Z,25.14
2017-05-19T04:38:40.024Z,25.08
2017-05-19T04:39:39.816Z,25.1
2017-05-19T04:40:40.037Z,25.18
2017-05-19T04:41:39.780Z,25.2
2017-05-19T04:42:39.516Z,25.09
2017-05-19T04:43:39.752Z,25.23
2017-05-19T04:44:40.069Z,25.15
2017-05-19T04:45:39.767Z,25.09
2017-05-19T04:46:39.873Z,25.15
2017-05-19T04:47:40.094Z,25.23
2017-05-19T04:48:39.531Z,25.14
2017-05-19T04:49:40.107Z,25.14
2017-05-19T04:50:40.169Z,25.14
2017-05-19T04:51:40.122Z,25.15
2017-05-19T04:52:40.137Z,25.08
2017-05-19T04:53:39.832Z,25.15
2017-05-19T04:54:39.841Z,25.17
2017-05-19T04:55:40.160Z,25.14
2017-05-19T04:56:40.165Z,25.17
2017-05-19T04:57:39.865Z,25.1
2017-05-19T04:58:40.185Z,25.09
2017-05-19T04:59:39.881Z,25.09
2017-05-19T05:00:40.199Z,25.18
2017-05-19T05:01:39.901Z,25.15
2017-05-19T05:02:40.219Z,25.21
2017-05-19T05:03:39.914Z,25.14
2017-05-19T05:04:40.238Z,25.15
2017-05-19T05:05:39.933Z,25.1
2017-05-19T05:06:40.249Z,25.14
2017-05-19T05:07:39.950Z,25.14
2017-05-19T05:08:39.960Z,25.08
2017-05-19T05:09:40.280Z,25.2
2017-05-19T05:10:39.973Z,25.13
2017-05-19T05:11:39.984Z,25.2
2017-05-19T05:12:40.301Z,25.17
2017-05-19T05:13:39.996Z,25.17
2017-05-19T05:14:40.365Z,25.08
2017-05-19T05:15:40.322Z,25.2
2017-05-19T05:16:40.334Z,25.13
2017-05-19T05:17:40.388Z,25.2
2017-05-19T05:18:40.349Z,25.13
2017-05-19T05:19:39.740Z,25.15
2017-05-19T05:20:40.365Z,25.09
2017-05-19T05:21:40.481Z,25.17
2017-05-19T05:22:40.382Z,25.06
2017-05-19T05:23:40.392Z,25.08
2017-05-19T05:24:40.088Z,25.15
2017-05-19T05:25:40.457Z,25.1
2017-05-19T05:26:40.106Z,25.06
2017-05-19T05:27:40.475Z,25.14
2017-05-19T05:28:40.434Z,25.14
2017-05-19T05:29:40.440Z,25.09
2017-05-19T05:30:40.451Z,25.08
2017-05-19T05:31:40.508Z,25.03
2017-05-19T05:32:40.465Z,25.14
2017-05-19T05:33:40.492Z,25.06
2017-05-19T05:34:40.482Z,25.13
2017-05-19T05:35:40.177Z,25.09
2017-05-19T05:36:40.547Z,25.09
2017-05-19T05:37:40.197Z,25.15
2017-05-19T05:38:40.513Z,25.08
2017-05-19T05:39:40.569Z,25.13
2017-05-19T05:40:40.220Z,25.1
2017-05-19T05:41:40.235Z,25.03
2017-05-19T05:42:40.240Z,25.06
2017-05-19T05:43:40.609Z,25.05
2017-05-19T05:44:40.563Z,25.09
2017-05-19T05:45:40.308Z,25.1
2017-05-19T05:46:40.582Z,25.05
2017-05-19T05:47:40.593Z,25.06
2017-05-19T05:48:40.597Z,25.09
2017-05-19T05:49:40.606Z,25.08
2017-05-19T05:50:40.612Z,25.14
2017-05-19T05:51:40.618Z,25.05
2017-05-19T05:52:40.633Z,25.06
2017-05-19T05:53:40.441Z,25.05
2017-05-19T05:54:40.644Z,25.05
2017-05-19T05:55:40.702Z,25.1
2017-05-19T05:56:40.677Z,25.09
2017-05-19T05:57:40.671Z,25.13
2017-05-19T05:58:40.425Z,25.06
2017-05-19T05:59:40.690Z,25.15
2017-05-19T06:00:40.389Z,25.13
2017-05-19T06:01:40.700Z,25.09
2017-05-19T06:02:40.714Z,25.05
2017-05-19T06:03:40.770Z,25.09
2017-05-19T06:04:40.418Z,25.13
2017-05-19T06:05:40.426Z,25.13
2017-05-19T06:06:40.865Z,25.09
2017-05-19T06:07:40.752Z,25.1
2017-05-19T06:08:40.764Z,25.09
2017-05-19T06:09:40.772Z,25.09
2017-05-19T06:10:40.796Z,25.08
2017-05-19T06:11:40.476Z,24.99
2017-05-19T06:12:40.540Z,25.08
2017-05-19T06:13:40.805Z,25.06
2017-05-19T06:14:40.809Z,25.05
2017-05-19T06:15:40.508Z,25.08
2017-05-19T06:16:40.519Z,25.08
2017-05-19T06:17:40.530Z,25.02
2017-05-19T06:18:40.945Z,24.98
2017-05-19T06:19:40.544Z,25.02
2017-05-19T06:20:40.860Z,25.05
2017-05-19T06:21:40.244Z,25.05
2017-05-19T06:22:40.880Z,25.05
2017-05-19T06:23:40.890Z,25.08
2017-05-19T06:24:40.898Z,25.14
2017-05-19T06:25:40.901Z,25.03
2017-05-19T06:26:40.912Z,25.05
2017-05-19T06:27:40.656Z,24.99
2017-05-19T06:28:40.925Z,24.98
2017-05-19T06:29:40.982Z,25
2017-05-19T06:30:40.635Z,25.06
2017-05-19T06:31:40.639Z,25.05
2017-05-19T06:32:40.962Z,24.93
2017-05-19T06:33:40.656Z,25.02
2017-05-19T06:34:40.972Z,24.98
2017-05-19T06:35:40.978Z,25.03
2017-05-19T06:36:40.990Z,25.05
2017-05-19T06:37:41.049Z,25.05
2017-05-19T06:38:41.004Z,24.98
2017-05-19T06:39:40.710Z,25.03
2017-05-19T06:40:41.024Z,25.05
2017-05-19T06:41:41.030Z,24.95
2017-05-19T06:42:41.041Z,25
2017-05-19T06:43:41.050Z,25.02
2017-05-19T06:44:41.058Z,25
2017-05-19T06:45:40.750Z,25.02
2017-05-19T06:46:40.770Z,25
2017-05-19T06:47:40.825Z,24.99
2017-05-19T06:48:41.093Z,25.02
2017-05-19T06:49:41.143Z,25.02
2017-05-19T06:50:41.157Z,24.96
2017-05-19T06:51:41.117Z,24.99
2017-05-19T06:52:41.138Z,24.93
2017-05-19T06:53:41.129Z,25.02
2017-05-19T06:54:41.197Z,24.99
2017-05-19T06:55:41.195Z,24.99
2017-05-19T06:56:41.152Z,25.05
2017-05-19T06:57:41.173Z,25.02
2017-05-19T06:58:41.172Z,25.05
2017-05-19T06:59:40.868Z,24.99
2017-05-19T07:00:41.239Z,24.95
2017-05-19T07:01:41.245Z,25.05
2017-05-19T07:02:41.201Z,24.98
2017-05-19T07:03:40.903Z,24.95
2017-05-19T07:04:41.218Z,25.05
2017-05-19T07:05:41.227Z,24.99
2017-05-19T07:06:41.236Z,24.99
2017-05-19T07:07:41.295Z,25
2017-05-19T07:08:41.255Z,25.02
2017-05-19T07:09:40.952Z,24.95
2017-05-19T07:10:40.960Z,24.93
2017-05-19T07:11:40.972Z,24.96
2017-05-19T07:12:41.346Z,24.99
2017-05-19T07:13:41.298Z,25.05
2017-05-19T07:14:41.305Z,24.9
2017-05-19T07:15:41.314Z,24.93
2017-05-19T07:16:41.321Z,25
2017-05-19T07:17:41.330Z,24.93
2017-05-19T07:18:41.636Z,24.91
2017-05-19T07:19:41.394Z,24.98
2017-05-19T07:20:41.460Z,24.96
2017-05-19T07:21:41.409Z,24.98
2017-05-19T07:22:41.372Z,24.96
2017-05-19T07:23:41.380Z,24.95
2017-05-19T07:24:41.384Z,25
2017-05-19T07:25:41.083Z,25
2017-05-19T07:26:41.406Z,25.08
2017-05-19T07:27:41.102Z,25.17
2017-05-19T07:28:41.108Z,25.27
2017-05-19T07:29:41.483Z,25.23
2017-05-19T07:30:41.126Z,25.36
2017-05-19T07:31:41.442Z,25.43
2017-05-19T07:32:40.889Z,25.46
2017-05-19T07:33:41.150Z,25.64
2017-05-19T07:34:41.153Z,25.7
2017-05-19T07:35:41.525Z,25.79
2017-05-19T07:36:41.485Z,25.9
2017-05-19T07:37:41.549Z,26.05
2017-05-19T07:38:41.507Z,26.06
2017-05-19T07:39:41.502Z,26.07
2017-05-19T07:40:41.516Z,26.32
2017-05-19T07:41:41.521Z,26.35
2017-05-19T07:42:41.533Z,26.57
2017-05-19T07:43:41.540Z,26.65
2017-05-19T07:44:41.547Z,26.48
2017-05-19T07:45:41.242Z,26.72
2017-05-19T07:46:41.564Z,26.69
2017-05-19T07:47:41.264Z,26.66
2017-05-19T07:48:41.629Z,26.87
2017-05-19T07:49:41.587Z,26.94
2017-05-19T07:50:41.602Z,27
2017-05-19T07:51:41.602Z,26.99
2017-05-19T07:52:41.613Z,26.94
2017-05-19T07:53:41.620Z,26.89
2017-05-19T07:54:41.325Z,26.91
2017-05-19T07:55:41.373Z,26.95
2017-05-19T07:56:41.335Z,27.12
2017-05-19T07:57:41.654Z,27.1
2017-05-19T07:58:41.355Z,27.12
2017-05-19T07:59:41.669Z,27.07
2017-05-19T08:00:41.368Z,27.13
2017-05-19T08:01:41.376Z,27.1
2017-05-19T08:02:41.743Z,27.14
2017-05-19T08:03:41.755Z,27.17
2017-05-19T08:04:41.710Z,27.18
2017-05-19T08:05:41.458Z,27.28
2017-05-19T08:06:41.728Z,27.22
2017-05-19T08:07:41.526Z,27.13
2017-05-19T08:08:41.744Z,27.13
2017-05-19T08:09:41.446Z,27.12
2017-05-19T08:10:41.762Z,27.31
2017-05-19T08:11:41.826Z,27.36
2017-05-19T08:12:41.789Z,27.29
2017-05-19T08:13:41.523Z,25.65
2017-05-19T08:14:41.481Z,25.33
2017-05-19T08:15:41.802Z,25.36
2017-05-19T08:16:41.805Z,25.42
2017-05-19T08:17:41.809Z,25.02
2017-05-19T08:18:41.505Z,24.98
2017-05-19T08:19:41.820Z,25.36
2017-05-19T08:20:41.883Z,25.62
2017-05-19T08:21:41.828Z,25.61
2017-05-19T08:22:41.523Z,25.45
2017-05-19T08:23:41.579Z,25.77
2017-05-19T08:24:41.539Z,25.54
2017-05-19T08:25:41.844Z,25.47
2017-05-19T08:26:41.837Z,25.21
2017-05-19T08:27:41.595Z,25.43
2017-05-19T08:28:41.868Z,25.45
2017-05-19T08:29:41.549Z,25.43
2017-05-19T08:30:41.865Z,25.32
2017-05-19T08:31:41.916Z,25.36
2017-05-19T08:32:41.952Z,25.14
2017-05-19T08:33:41.595Z,25.28
2017-05-19T08:34:41.677Z,25.39
2017-05-19T08:35:41.678Z,25.15
2017-05-19T08:36:41.886Z,24.95
2017-05-19T08:37:41.691Z,25.09
2017-05-19T08:38:41.582Z,25.17
2017-05-19T08:39:41.590Z,24.62
2017-05-19T08:40:41.609Z,24.32
2017-05-19T08:41:41.955Z,24.52
2017-05-19T08:42:41.602Z,25.05
2017-05-19T08:43:41.909Z,24.65
2017-05-19T08:44:41.918Z,24.69
2017-05-19T08:45:41.967Z,24.43
2017-05-19T08:46:41.611Z,24.57
2017-05-19T08:47:41.925Z,24.49
2017-05-19T08:48:41.928Z,24.2
2017-05-19T08:49:41.926Z,24.53
2017-05-19T08:50:41.669Z,24.27
2017-05-19T08:51:41.933Z,24.39
2017-05-19T08:52:41.990Z,24.69
2017-05-19T08:53:41.938Z,25.08
2017-05-19T08:54:41.943Z,25.32
2017-05-19T08:55:41.953Z,25.46
2017-05-19T08:56:41.642Z,25.6
2017-05-19T08:57:41.964Z,25.79
2017-05-19T08:58:42.014Z,25.76
2017-05-19T08:59:41.970Z,25.83
2017-05-19T09:00:41.668Z,25.88
2017-05-19T09:01:41.981Z,25.9
2017-05-19T09:02:42.041Z,26.02
2017-05-19T09:03:41.687Z,26.12
2017-05-19T09:04:42.003Z,26.25
2017-05-19T09:05:41.696Z,26.18
2017-05-19T09:06:42.065Z,26.17
2017-05-19T09:07:41.762Z,26.26
2017-05-19T09:08:42.031Z,26.25
2017-05-19T09:09:41.778Z,26.28
2017-05-19T09:10:42.044Z,26.26
2017-05-19T09:11:42.055Z,26.43
2017-05-19T09:12:41.748Z,26.37
2017-05-19T09:13:41.807Z,26.44
2017-05-19T09:14:42.124Z,26.45
2017-05-19T09:15:41.771Z,26.26
2017-05-19T09:16:42.092Z,26.25
2017-05-19T09:17:42.100Z,26.23
2017-05-19T09:18:42.116Z,26.28
2017-05-19T09:19:41.808Z,26.25
2017-05-19T09:20:42.122Z,26.21
2017-05-19T09:21:42.182Z,26.3
2017-05-19T09:22:42.143Z,26.26
2017-05-19T09:23:42.148Z,26.29
2017-05-19T09:24:42.161Z,26.29
2017-05-19T09:25:41.851Z,26.33
2017-05-19T09:26:42.166Z,26.28
2017-05-19T09:27:42.179Z,26.23
2017-05-19T09:28:42.186Z,26.35
2017-05-19T09:29:42.250Z,26.36
2017-05-19T09:30:41.932Z,26.35
2017-05-19T09:31:42.254Z,26.33
2017-05-19T09:32:41.910Z,26.35
2017-05-19T09:33:42.221Z,26.4
2017-05-19T09:34:42.278Z,26.43
2017-05-19T09:35:42.287Z,26.35
2017-05-19T09:36:42.244Z,26.43
2017-05-19T09:37:42.253Z,26.39
2017-05-19T09:38:42.263Z,26.45
2017-05-19T09:39:41.958Z,26.39
2017-05-19T09:40:42.332Z,26.45
2017-05-19T09:41:42.283Z,26.39
2017-05-19T09:42:42.045Z,26.45
2017-05-19T09:43:42.301Z,26.43
2017-05-19T09:44:41.998Z,26.45
2017-05-19T09:45:42.371Z,26.48
2017-05-19T09:46:42.126Z,26.57
2017-05-19T09:47:42.025Z,26.55
2017-05-19T09:48:41.765Z,26.54
2017-05-19T09:49:42.348Z,26.66
2017-05-19T09:50:42.049Z,26.67
2017-05-19T09:51:42.666Z,26.54
2017-05-19T09:52:42.385Z,26.51
2017-05-19T09:53:42.384Z,26.52
2017-05-19T09:54:42.389Z,26.55
2017-05-19T09:55:42.446Z,26.54
2017-05-19T09:56:42.407Z,26.69
2017-05-19T09:57:42.153Z,26.66
2017-05-19T09:58:42.109Z,26.7
2017-05-19T09:59:42.433Z,26.69
2017-05-19T10:00:42.443Z,26.62
2017-05-19T10:01:42.131Z,26.62
2017-05-19T10:02:42.148Z,26.66
2017-05-19T10:03:42.463Z,26.65
2017-05-19T10:04:42.467Z,26.51
2017-05-19T10:05:42.168Z,26.55
2017-05-19T10:06:42.223Z,26.63
2017-05-19T10:07:42.597Z,26.69
2017-05-19T10:08:42.197Z,26.75
2017-05-19T10:09:42.508Z,26.72
2017-05-19T10:10:42.517Z,26.66
2017-05-19T10:11:42.530Z,26.67
2017-05-19T10:12:41.915Z,26.75
2017-05-19T10:13:42.232Z,26.85
2017-05-19T10:14:42.553Z,26.82
2017-05-19T10:15:42.304Z,26.95
2017-05-19T10:16:42.564Z,26.91
2017-05-19T10:17:42.576Z,26.87
2017-05-19T10:18:42.590Z,26.7
2017-05-19T10:19:42.281Z,26.73
2017-05-19T10:20:42.600Z,26.81
2017-05-19T10:21:42.606Z,26.73
2017-05-19T10:22:42.667Z,26.82
2017-05-19T10:23:42.628Z,26.7
2017-05-19T10:24:42.634Z,26.73
2017-05-19T10:25:42.328Z,26.73
2017-05-19T10:26:42.336Z,26.8
2017-05-19T10:27:42.352Z,26.8
2017-05-19T10:28:42.669Z,26.85
2017-05-19T10:29:42.365Z,26.82
2017-05-19T10:30:42.680Z,26.8
2017-05-19T10:31:42.692Z,26.82
2017-05-19T10:32:42.698Z,26.8
2017-05-19T10:33:42.132Z,26.85
2017-05-19T10:34:42.094Z,26.91
2017-05-19T10:35:42.410Z,26.87
2017-05-19T10:36:42.471Z,26.85
2017-05-19T10:37:42.738Z,26.81
2017-05-19T10:38:42.848Z,26.81
2017-05-19T10:39:42.745Z,26.8
2017-05-19T10:40:42.763Z,26.87
2017-05-19T10:41:42.769Z,26.85
2017-05-19T10:42:42.472Z,26.91
2017-05-19T10:43:42.791Z,26.91
2017-05-19T10:44:42.483Z,27.1
2017-05-19T10:45:42.902Z,27.04
2017-05-19T10:46:42.503Z,27.07
2017-05-19T10:47:42.823Z,27.18
2017-05-19T10:48:42.570Z,27.06
2017-05-19T10:49:42.527Z,27.18
2017-05-19T10:50:42.849Z,27.12
2017-05-19T10:51:42.852Z,27.14
2017-05-19T10:52:42.867Z,27.06
2017-05-19T10:53:42.874Z,27.13
2017-05-19T10:54:42.927Z,27.17
2017-05-19T10:55:42.586Z,27.28
2017-05-19T10:56:42.943Z,27.27
2017-05-19T10:57:42.680Z,27.13
2017-05-19T10:58:42.601Z,27.12
2017-05-19T10:59:42.608Z,27.13
2017-05-19T11:00:43.034Z,27.07
2017-05-19T11:01:42.938Z,27.12
2017-05-19T11:02:42.948Z,27.09
2017-05-19T11:03:42.960Z,27.09
2017-05-19T11:04:42.654Z,27.07
2017-05-19T11:05:42.979Z,27
2017-05-19T11:06:42.982Z,27.03
2017-05-19T11:07:43.055Z,27
2017-05-19T11:08:42.995Z,27.06
2017-05-19T11:09:43.006Z,27.09
2017-05-19T11:10:43.015Z,27.04
2017-05-19T11:11:43.022Z,26.97
2017-05-19T11:12:43.032Z,26.89
2017-05-19T11:13:42.730Z,26.91
2017-05-19T11:14:43.046Z,26.95
2017-05-19T11:15:43.122Z,26.99
2017-05-19T11:16:43.072Z,26.99
2017-05-19T11:17:43.178Z,26.91
2017-05-19T11:18:42.769Z,26.87
2017-05-19T11:19:43.094Z,26.92
2017-05-19T11:20:42.790Z,26.84
2017-05-19T11:21:42.798Z,26.85
2017-05-19T11:22:42.807Z,26.92
2017-05-19T11:23:43.123Z,26.82
2017-05-19T11:24:43.131Z,26.85
2017-05-19T11:25:43.147Z,26.88
2017-05-19T11:26:42.841Z,26.8
2017-05-19T11:27:43.209Z,26.82
2017-05-19T11:28:43.165Z,26.77
2017-05-19T11:29:43.176Z,26.77
2017-05-19T11:30:43.190Z,26.76
2017-05-19T11:31:43.190Z,26.75
2017-05-19T11:32:42.890Z,26.82
2017-05-19T11:33:42.947Z,26.82
2017-05-19T11:34:42.642Z,26.84
2017-05-19T11:35:42.979Z,26.82
2017-05-19T11:36:42.613Z,26.77
2017-05-19T11:37:42.940Z,26.73
2017-05-19T11:38:42.938Z,26.82
2017-05-19T11:39:42.638Z,26.84
2017-05-19T11:40:42.951Z,26.84
2017-05-19T11:41:43.272Z,26.85
2017-05-19T11:42:42.658Z,26.84
2017-05-19T11:43:42.664Z,26.89
2017-05-19T11:44:43.299Z,27.06
2017-05-19T11:45:43.041Z,27.02
2017-05-19T11:46:43.004Z,27.09
2017-05-19T11:47:43.374Z,27.1
2017-05-19T11:48:43.337Z,27.1
2017-05-19T11:49:42.715Z,27.17
2017-05-19T11:50:43.350Z,27.06
2017-05-19T11:51:43.357Z,27.12
2017-05-19T11:52:43.053Z,27.1
2017-05-19T11:53:42.752Z,27.13
2017-05-19T11:54:43.381Z,27.12
2017-05-19T11:55:43.389Z,27.07
2017-05-19T11:56:43.399Z,27.17
2017-05-19T11:57:43.411Z,27.12
2017-05-19T11:58:43.425Z,27.14
2017-05-19T11:59:43.425Z,27.25
2017-05-19T12:00:43.488Z,27.18
2017-05-19T12:01:43.176Z,27.22
2017-05-19T12:02:42.834Z,27.07
2017-05-19T12:03:43.455Z,27.13
2017-05-19T12:04:43.576Z,27.03
2017-05-19T12:05:43.480Z,27.09
2017-05-19T12:06:43.479Z,27.03
2017-05-19T12:07:43.514Z,27.13
2017-05-19T12:08:43.551Z,27.13
2017-05-19T12:09:42.889Z,27.02
2017-05-19T12:10:43.568Z,26.97
2017-05-19T12:11:43.525Z,27.02
2017-05-19T12:12:43.220Z,26.99
2017-05-19T12:13:43.596Z,27.04
2017-05-19T12:14:43.243Z,27.13
2017-05-19T12:15:43.245Z,27.07
2017-05-19T12:16:43.253Z,27.12
2017-05-19T12:17:43.577Z,27.09
2017-05-19T12:18:43.270Z,27.13
2017-05-19T12:19:43.586Z,27.12
2017-05-19T12:20:43.588Z,27.09
2017-05-19T12:21:43.658Z,27.09
2017-05-19T12:22:43.616Z,27.03
2017-05-19T12:23:43.684Z,27.13
2017-05-19T12:24:43.636Z,27.13
2017-05-19T12:25:43.693Z,27.13
2017-05-19T12:26:43.715Z,27.1
2017-05-19T12:27:43.656Z,27.09
2017-05-19T12:28:43.726Z,27.06
2017-05-19T12:29:43.671Z,27.12
2017-05-19T12:30:43.732Z,27.1
2017-05-19T12:31:43.687Z,27.09
2017-05-19T12:32:43.388Z,27.1
2017-05-19T12:33:43.133Z,27.07
2017-05-19T12:34:43.403Z,27.04
2017-05-19T12:35:43.723Z,27.07
2017-05-19T12:36:43.733Z,27
2017-05-19T12:37:43.796Z,27.02
2017-05-19T12:38:43.446Z,27.09
2017-05-19T12:39:43.756Z,27.07
2017-05-19T12:40:43.504Z,27.13
2017-05-19T12:41:43.469Z,27.12
2017-05-19T12:42:43.471Z,27.21
2017-05-19T12:43:43.536Z,27.13
2017-05-19T12:44:43.799Z,27.18
2017-05-19T12:45:43.810Z,27.21
2017-05-19T12:46:43.867Z,27.43
2017-05-19T12:47:43.832Z,27.41
2017-05-19T12:48:43.527Z,27.43
2017-05-19T12:49:43.892Z,27.47
2017-05-19T12:50:43.553Z,27.6
2017-05-19T12:51:43.863Z,27.67
2017-05-19T12:52:43.920Z,27.62
2017-05-19T12:53:43.927Z,27.7
2017-05-19T12:54:43.943Z,27.67
2017-05-19T12:55:43.898Z,27.66
2017-05-19T12:56:43.593Z,27.65